Time;durP1;ratioP1;P1;durP2;ratioP2;P2;SDS_P1;SDS_P2;PMS_P1;PMS_P2;Temp;Humidity;BMP_temperature;BMP_pressure;BME280_temperature;BME280_humidity;BME280_pressure;Samples;Min_cycle;Max_cycle;Signal;HPM_P1;HPM_P2
2021/04/19 00:02:14;;;;;;;29.48;20.60;;;3.80;98.50;;;;;;4789507;29;20066;-83
2021/04/19 00:04:42;;;;;;;28.52;20.85;;;3.80;98.80;;;;;;4806030;29;20409;-84
2021/04/19 00:07:10;;;;;;;34.35;19.52;;;3.60;99.00;;;;;;4805537;29;20047;-83
2021/04/19 00:09:37;;;;;;;34.78;23.33;;;3.60;99.10;;;;;;4774739;29;20066;-83
2021/04/19 00:12:06;;;;;;;32.40;20.42;;;3.60;99.10;;;;;;4789786;29;20047;-83
2021/04/19 00:14:34;;;;;;;32.28;21.13;;;3.60;99.30;;;;;;4805546;29;20070;-84
2021/04/19 00:17:04;;;;;;;33.47;20.48;;;3.60;99.40;;;;;;4774358;29;20043;-83
2021/04/19 00:19:31;;;;;;;33.28;22.30;;;3.50;99.10;;;;;;4798294;29;20059;-83
2021/04/19 00:21:59;;;;;;;37.20;24.13;;;3.50;99.60;;;;;;4787367;30;20062;-83
2021/04/19 00:24:26;;;;;;;31.80;22.20;;;3.50;99.40;;;;;;4799861;29;20054;-83
2021/04/19 00:26:53;;;;;;;34.40;22.02;;;3.50;99.30;;;;;;4804915;29;20485;-83
2021/04/19 00:29:21;;;;;;;36.58;25.27;;;3.60;99.20;;;;;;4804797;29;20066;-83
2021/04/19 00:31:48;;;;;;;34.70;21.90;;;3.50;99.30;;;;;;4788794;29;20516;-83
2021/04/19 00:34:16;;;;;;;33.08;23.95;;;3.50;99.50;;;;;;4789211;29;20063;-83
2021/04/19 00:36:43;;;;;;;31.60;20.65;;;3.40;99.10;;;;;;4788810;29;20059;-83
2021/04/19 00:39:11;;;;;;;25.40;18.30;;;3.40;99.30;;;;;;4804653;29;20076;-83
2021/04/19 00:41:38;;;;;;;34.08;25.23;;;3.40;99.60;;;;;;4805322;29;20066;-83
2021/04/19 00:44:06;;;;;;;44.30;25.50;;;3.40;99.40;;;;;;4803804;29;20054;-83
2021/04/19 00:46:33;;;;;;;32.13;23.58;;;3.40;99.50;;;;;;4805459;29;20603;-83
2021/04/19 00:49:01;;;;;;;29.05;20.48;;;3.30;99.40;;;;;;4805239;29;20050;-83
2021/04/19 00:51:29;;;;;;;35.25;22.63;;;3.30;99.50;;;;;;4788596;29;20066;-83
2021/04/19 00:53:57;;;;;;;36.65;25.05;;;3.30;99.80;;;;;;4789186;29;20062;-83
2021/04/19 00:56:25;;;;;;;39.20;22.63;;;3.30;99.70;;;;;;4804311;29;20050;-83
2021/04/19 00:58:52;;;;;;;36.00;23.73;;;3.40;99.60;;;;;;4773647;29;20074;-83
2021/04/19 01:01:20;;;;;;;34.20;20.80;;;3.30;99.60;;;;;;4804373;29;20068;-83
2021/04/19 01:03:48;;;;;;;35.10;24.65;;;3.30;99.60;;;;;;4803943;29;20057;-83
2021/04/19 01:06:15;;;;;;;31.40;21.08;;;3.30;99.70;;;;;;4805462;29;20059;-83
2021/04/19 01:08:43;;;;;;;33.70;25.27;;;3.30;99.40;;;;;;4788233;29;20047;-83
2021/04/19 01:11:10;;;;;;;33.50;23.42;;;3.30;99.60;;;;;;4788903;29;20409;-83
2021/04/19 01:13:37;;;;;;;31.25;21.23;;;3.30;99.60;;;;;;4788714;29;20146;-83
2021/04/19 01:16:06;;;;;;;34.75;23.58;;;3.30;99.50;;;;;;4788570;29;20490;-83
2021/04/19 01:18:37;;;;;;;27.08;19.38;;;3.30;99.60;;;;;;4804711;29;20054;-83
2021/04/19 01:21:07;;;;;;;30.55;20.05;;;3.30;99.50;;;;;;4774247;29;20409;-84
2021/04/19 01:23:37;;;;;;;31.83;20.27;;;3.30;99.50;;;;;;4788181;29;20078;-84
2021/04/19 01:26:05;;;;;;;31.85;20.35;;;3.30;99.30;;;;;;4804849;29;20051;-83
2021/04/19 01:28:52;;;;;;;33.45;22.17;;;3.40;99.30;;;;;;4787711;29;20050;-83
2021/04/19 01:31:22;;;;;;;33.60;20.25;;;3.40;99.10;;;;;;4787752;29;20051;-84
2021/04/19 01:33:54;;;;;;;26.50;18.75;;;3.40;99.10;;;;;;4770525;30;20055;-84
2021/04/19 01:36:24;;;;;;;30.40;21.08;;;3.40;99.10;;;;;;4784198;29;20059;-84
2021/04/19 01:38:52;;;;;;;31.15;21.15;;;3.40;99.10;;;;;;4787868;29;20073;-83
2021/04/19 01:41:21;;;;;;;36.25;22.90;;;3.40;99.10;;;;;;4788082;29;20059;-83
2021/04/19 01:43:49;;;;;;;32.42;21.05;;;3.30;99.20;;;;;;4786519;29;20051;-84
2021/04/19 01:46:17;;;;;;;32.38;21.35;;;3.40;99.50;;;;;;4788124;29;20062;-84
2021/04/19 01:48:44;;;;;;;28.38;20.13;;;3.40;99.50;;;;;;4787488;29;20055;-84
2021/04/19 01:51:13;;;;;;;36.80;19.92;;;3.30;99.50;;;;;;4803986;29;20055;-84
2021/04/19 01:53:41;;;;;;;28.80;20.02;;;3.30;99.50;;;;;;4772552;29;20059;-84
2021/04/19 01:56:08;;;;;;;33.33;20.35;;;3.30;99.30;;;;;;4787227;29;20059;-83
2021/04/19 01:58:41;;;;;;;30.92;18.63;;;3.30;99.50;;;;;;4769158;30;20060;-83
2021/04/19 02:01:09;;;;;;;31.10;23.95;;;3.30;99.50;;;;;;4769880;30;20062;-83
2021/04/19 02:04:04;;;;;;;34.97;22.85;;;3.30;99.70;;;;;;4759616;29;20054;-83
2021/04/19 02:07:01;;;;;;;31.85;21.67;;;3.30;99.70;;;;;;4788691;29;20545;-83
2021/04/19 02:09:42;;;;;;;31.25;23.65;;;3.30;99.80;;;;;;4758059;29;20061;-84
2021/04/19 02:12:48;;;;;;;29.58;20.83;;;3.20;99.90;;;;;;4786680;29;20054;-83
2021/04/19 02:15:35;;;;;;;32.40;22.05;;;3.20;99.90;;;;;;4772034;29;20050;-83
2021/04/19 02:18:30;;;;;;;44.25;21.48;;;3.20;99.90;;;;;;4786941;29;20091;-83
2021/04/19 02:21:11;;;;;;;39.38;27.00;;;3.20;99.90;;;;;;4786702;29;20059;-83
2021/04/19 02:23:50;;;;;;;37.28;23.00;;;3.10;99.90;;;;;;4787056;29;20043;-83
2021/04/19 02:26:27;;;;;;;35.10;22.90;;;3.10;99.90;;;;;;4803912;29;20544;-84
2021/04/19 02:28:56;;;;;;;30.13;21.08;;;3.10;99.90;;;;;;4786948;29;20051;-83
2021/04/19 02:31:25;;;;;;;31.85;18.58;;;3.10;99.90;;;;;;4801693;29;20505;-83
2021/04/19 02:33:58;;;;;;;31.77;19.33;;;3.20;99.90;;;;;;4787540;29;20051;-83
2021/04/19 02:36:29;;;;;;;31.35;21.20;;;3.10;99.90;;;;;;4787154;29;20047;-83
2021/04/19 02:39:00;;;;;;;27.52;20.08;;;3.10;99.90;;;;;;4786871;29;20081;-83
2021/04/19 02:41:28;;;;;;;28.50;18.42;;;3.10;99.90;;;;;;4803614;29;20070;-83
2021/04/19 02:43:59;;;;;;;35.17;22.15;;;3.10;99.90;;;;;;4771293;29;20865;-83
2021/04/19 02:46:44;;;;;;;31.17;20.17;;;3.10;99.90;;;;;;4772048;29;20094;-83
2021/04/19 02:49:13;;;;;;;34.83;22.23;;;3.10;99.90;;;;;;4787124;29;20054;-79
2021/04/19 02:51:42;;;;;;;28.15;19.60;;;3.00;99.90;;;;;;4768164;29;20494;-79
2021/04/19 02:54:11;;;;;;;31.75;20.27;;;3.10;99.90;;;;;;4754502;30;20070;-79
2021/04/19 02:56:41;;;;;;;27.77;20.70;;;3.10;99.90;;;;;;4784472;29;20043;-83
2021/04/19 02:59:11;;;;;;;26.83;18.45;;;3.10;99.70;;;;;;4768567;30;20123;-83
2021/04/19 03:01:45;;;;;;;30.48;21.70;;;3.10;99.60;;;;;;4768826;29;20068;-83
2021/04/19 03:04:20;;;;;;;28.83;19.77;;;3.20;99.70;;;;;;4783556;30;20552;-83
2021/04/19 03:07:09;;;;;;;27.35;18.95;;;3.10;99.60;;;;;;4768445;30;20070;-84
2021/04/19 03:09:44;;;;;;;27.33;18.38;;;3.20;99.50;;;;;;4784511;30;20502;-84
2021/04/19 03:12:15;;;;;;;28.77;18.17;;;3.30;99.20;;;;;;4753527;30;20047;-84
2021/04/19 03:14:57;;;;;;;26.80;19.58;;;3.20;99.30;;;;;;4768908;29;20486;-83
2021/04/19 03:17:28;;;;;;;32.17;20.77;;;3.30;99.30;;;;;;4783143;30;20055;-84
2021/04/19 03:20:22;;;;;;;34.08;20.35;;;3.20;99.30;;;;;;4768616;30;20054;-84
2021/04/19 03:23:00;;;;;;;26.30;19.42;;;3.20;99.30;;;;;;4772432;29;20054;-84
2021/04/19 03:25:38;;;;;;;28.08;18.77;;;3.20;99.20;;;;;;4786125;29;20569;-84
2021/04/19 03:28:07;;;;;;;29.42;18.75;;;3.30;99.20;;;;;;4786667;29;20058;-84
2021/04/19 03:30:36;;;;;;;28.33;20.17;;;3.20;99.30;;;;;;4786224;29;20054;-83
2021/04/19 03:33:09;;;;;;;26.08;17.42;;;3.20;99.50;;;;;;4785023;29;20051;-83
2021/04/19 03:35:41;;;;;;;23.80;17.27;;;3.30;99.60;;;;;;4786570;29;20059;-83
2021/04/19 03:38:16;;;;;;;23.75;15.90;;;3.20;99.60;;;;;;4802483;29;20066;-83
2021/04/19 03:40:47;;;;;;;25.63;17.27;;;3.30;99.50;;;;;;4786234;29;20071;-83
2021/04/19 03:43:22;;;;;;;38.05;21.13;;;3.30;99.40;;;;;;4786259;29;20406;-83
2021/04/19 03:46:05;;;;;;;30.83;18.08;;;3.30;99.20;;;;;;4786816;29;20058;-83
2021/04/19 03:48:50;;;;;;;36.45;19.10;;;3.30;99.10;;;;;;4786208;29;20061;-84
2021/04/19 03:51:27;;;;;;;33.38;20.45;;;3.30;99.20;;;;;;4772649;29;20513;-83
2021/04/19 03:53:57;;;;;;;28.40;17.50;;;3.30;99.50;;;;;;4802356;29;20055;-83
2021/04/19 03:56:31;;;;;;;28.70;18.30;;;3.20;99.90;;;;;;4786361;29;20082;-83
2021/04/19 03:59:06;;;;;;;30.00;18.73;;;3.20;99.90;;;;;;4786112;29;20054;-83
2021/04/19 04:01:42;;;;;;;23.85;16.20;;;3.10;99.90;;;;;;4787583;29;20489;-83
2021/04/19 04:04:15;;;;;;;22.85;16.02;;;3.00;99.90;;;;;;4770634;29;20055;-83
2021/04/19 04:06:53;;;;;;;27.70;20.73;;;3.10;99.90;;;;;;4785614;29;20534;-83
2021/04/19 04:09:24;;;;;;;24.52;17.15;;;3.10;99.90;;;;;;4786256;29;20059;-83
2021/04/19 04:11:54;;;;;;;26.73;18.73;;;3.10;99.90;;;;;;4801741;29;20050;-83
2021/04/19 04:14:35;;;;;;;28.90;20.30;;;3.10;99.90;;;;;;4802854;29;20050;-83
2021/04/19 04:17:03;;;;;;;25.45;18.48;;;3.20;99.90;;;;;;4802627;29;20497;-83
2021/04/19 04:19:54;;;;;;;31.25;20.42;;;3.00;99.90;;;;;;4796121;29;20050;-84
2021/04/19 04:22:23;;;;;;;24.08;16.13;;;3.00;99.90;;;;;;4789658;29;20058;-83
2021/04/19 04:24:52;;;;;;;25.15;16.08;;;3.00;99.90;;;;;;4806068;29;20047;-77
2021/04/19 04:27:20;;;;;;;26.65;16.52;;;3.00;99.90;;;;;;4805443;29;20066;-78
2021/04/19 04:29:49;;;;;;;29.13;19.95;;;3.00;99.90;;;;;;4789094;29;20063;-83
2021/04/19 04:32:49;;;;;;;29.45;18.50;;;3.00;99.90;;;;;;4796762;29;20505;-83
2021/04/19 04:35:33;;;;;;;38.83;20.70;;;3.00;99.90;;;;;;4788506;29;20140;-83
2021/04/19 04:38:12;;;;;;;29.98;18.27;;;3.00;99.90;;;;;;4789634;29;20081;-83
2021/04/19 04:40:59;;;;;;;32.00;17.98;;;3.10;99.90;;;;;;4788771;29;20497;-83
2021/04/19 04:43:28;;;;;;;38.53;22.70;;;3.10;99.90;;;;;;4804508;29;20818;-83
2021/04/19 04:46:05;;;;;;;29.48;18.83;;;3.10;99.90;;;;;;4788263;29;20055;-83
2021/04/19 04:48:55;;;;;;;32.78;21.63;;;3.10;99.90;;;;;;4804664;29;20051;-83
2021/04/19 04:51:27;;;;;;;30.92;21.35;;;3.20;99.90;;;;;;4804532;29;20051;-83
2021/04/19 04:53:59;;;;;;;29.90;21.17;;;3.20;99.90;;;;;;4774354;29;20062;-83
2021/04/19 04:56:32;;;;;;;33.13;22.42;;;3.20;99.90;;;;;;4788667;29;20055;-83
2021/04/19 04:59:00;;;;;;;31.75;20.65;;;3.20;99.90;;;;;;4787882;29;20493;-83
2021/04/19 05:01:30;;;;;;;31.60;21.85;;;3.30;99.90;;;;;;4804375;29;20073;-82
2021/04/19 05:03:59;;;;;;;28.55;19.42;;;3.20;99.90;;;;;;4788077;29;20051;-83
2021/04/19 05:06:27;;;;;;;33.50;21.70;;;3.30;99.90;;;;;;4774027;29;20062;-83
2021/04/19 05:08:55;;;;;;;28.98;21.38;;;3.30;99.90;;;;;;4804354;29;20059;-83
2021/04/19 05:11:23;;;;;;;29.73;20.83;;;3.30;99.90;;;;;;4788128;29;20070;-83
2021/04/19 05:14:02;;;;;;;34.17;21.20;;;3.40;99.90;;;;;;4804638;29;20061;-83
2021/04/19 05:16:31;;;;;;;36.97;19.90;;;3.40;99.90;;;;;;4804499;29;20051;-83
2021/04/19 05:19:04;;;;;;;33.88;21.45;;;3.40;99.90;;;;;;4788471;29;20043;-83
2021/04/19 05:21:34;;;;;;;31.25;19.60;;;3.40;99.90;;;;;;4789016;29;20050;-83
2021/04/19 05:24:02;;;;;;;36.50;22.80;;;3.30;99.90;;;;;;4773312;29;20051;-83
2021/04/19 05:26:32;;;;;;;31.42;21.75;;;3.40;99.90;;;;;;4804842;29;20054;-83
2021/04/19 05:29:00;;;;;;;30.05;19.55;;;3.60;99.90;;;;;;4803336;29;20054;-83
2021/04/19 05:31:27;;;;;;;28.60;18.85;;;3.50;99.90;;;;;;4788168;29;20043;-83
2021/04/19 05:33:55;;;;;;;30.60;18.88;;;3.60;99.90;;;;;;4804012;29;20055;-84
2021/04/19 05:36:25;;;;;;;30.77;21.60;;;3.60;99.90;;;;;;4787632;29;20043;-83
2021/04/19 05:38:53;;;;;;;31.17;20.33;;;3.60;99.90;;;;;;4772596;29;20433;-81
2021/04/19 05:41:22;;;;;;;27.25;20.48;;;3.60;99.90;;;;;;4788479;29;20063;-82
2021/04/19 05:43:50;;;;;;;29.48;21.13;;;3.70;99.90;;;;;;4767314;29;20062;-82
2021/04/19 05:46:20;;;;;;;30.60;18.92;;;3.70;99.90;;;;;;4785722;29;20062;-82
2021/04/19 05:48:47;;;;;;;33.67;21.40;;;3.70;99.80;;;;;;4798604;29;20067;-83
2021/04/19 05:51:28;;;;;;;29.42;19.98;;;3.90;99.90;;;;;;4752941;29;20069;-83
2021/04/19 05:53:56;;;;;;;27.38;20.10;;;3.80;99.70;;;;;;4783473;30;20449;-82
2021/04/19 05:56:47;;;;;;;33.53;19.67;;;3.80;99.20;;;;;;4767800;29;20059;-83
2021/04/19 05:59:23;;;;;;;23.42;17.58;;;3.90;99.70;;;;;;4769033;30;20062;-84
2021/04/19 06:01:53;;;;;;;28.70;17.95;;;4.00;99.60;;;;;;4739470;30;20063;-85
2021/04/19 06:04:31;;;;;;;33.00;22.65;;;4.10;99.10;;;;;;4782512;29;20521;-82
2021/04/19 06:07:13;;;;;;;31.02;20.70;;;4.10;99.50;;;;;;4784363;30;20051;-81
2021/04/19 06:10:05;;;;;;;29.15;19.63;;;4.10;99.60;;;;;;4781487;29;20055;-86
2021/04/19 06:12:58;;;;;;;24.70;19.23;;;4.20;99.80;;;;;;4783302;29;20055;-85
2021/04/19 06:15:38;;;;;;;25.42;18.90;;;4.30;99.10;;;;;;4786135;29;20058;-85
2021/04/19 06:18:09;;;;;;;28.50;20.83;;;4.40;98.00;;;;;;4771787;29;20385;-85
2021/04/19 06:20:37;;;;;;;27.23;21.30;;;4.50;98.30;;;;;;4771276;29;20050;-85
2021/04/19 06:23:06;;;;;;;30.17;18.95;;;4.50;98.10;;;;;;4772093;29;20047;-81
2021/04/19 06:25:35;;;;;;;28.13;20.50;;;4.70;97.80;;;;;;4763977;29;20421;-85
2021/04/19 06:28:05;;;;;;;34.50;21.42;;;4.70;98.40;;;;;;4800967;29;20051;-84
2021/04/19 06:30:41;;;;;;;31.15;21.45;;;4.80;98.00;;;;;;4758111;29;20047;-82
2021/04/19 06:33:17;;;;;;;27.95;19.38;;;4.80;97.30;;;;;;4785100;29;20521;-83
2021/04/19 06:35:46;;;;;;;25.52;17.80;;;4.90;97.00;;;;;;4793232;29;20053;-85
2021/04/19 06:38:15;;;;;;;27.13;20.55;;;4.90;97.10;;;;;;4778920;29;20059;-84
2021/04/19 06:40:45;;;;;;;26.17;18.08;;;4.80;97.00;;;;;;4777308;29;20051;-87
2021/04/19 06:43:15;;;;;;;26.52;19.42;;;4.90;97.20;;;;;;4771857;29;20043;-87
2021/04/19 06:45:44;;;;;;;28.60;19.05;;;4.90;96.90;;;;;;4799052;29;20055;-85
2021/04/19 06:48:12;;;;;;;26.85;18.77;;;5.00;97.40;;;;;;4785314;29;20039;-84
2021/04/19 06:50:40;;;;;;;33.47;17.27;;;5.10;97.30;;;;;;4785540;29;20056;-84
2021/04/19 06:53:08;;;;;;;30.58;20.25;;;5.20;97.40;;;;;;4778574;29;20075;-85
2021/04/19 06:55:39;;;;;;;30.13;19.20;;;5.20;97.20;;;;;;4780160;29;20582;-86
2021/04/19 06:58:09;;;;;;;25.35;19.20;;;5.30;96.70;;;;;;4795134;29;20058;-87
2021/04/19 07:00:37;;;;;;;30.90;19.55;;;5.30;95.90;;;;;;4798178;29;20501;-85
2021/04/19 07:03:06;;;;;;;28.27;18.85;;;5.50;97.90;;;;;;4784540;29;20401;-84
2021/04/19 07:05:36;;;;;;;28.52;19.45;;;5.50;95.80;;;;;;4770951;29;20059;-85
2021/04/19 07:08:19;;;;;;;26.00;19.35;;;5.50;96.40;;;;;;4802347;29;20053;-86
2021/04/19 07:10:49;;;;;;;27.27;20.10;;;5.60;95.90;;;;;;4797881;29;20062;-85
2021/04/19 07:13:18;;;;;;;26.95;18.20;;;5.60;97.00;;;;;;4791272;29;20093;-85
2021/04/19 07:15:47;;;;;;;25.33;18.75;;;5.70;95.90;;;;;;4795316;29;20050;-86
2021/04/19 07:18:16;;;;;;;33.25;19.42;;;5.80;95.40;;;;;;4786342;29;20063;-86
2021/04/19 07:20:45;;;;;;;27.00;19.60;;;6.00;95.70;;;;;;4787780;29;20054;-85
2021/04/19 07:23:13;;;;;;;30.15;19.88;;;6.00;94.80;;;;;;4801756;29;20494;-85
2021/04/19 07:25:43;;;;;;;29.17;21.10;;;6.00;95.20;;;;;;4797965;29;20070;-86
2021/04/19 07:28:13;;;;;;;25.40;18.65;;;6.30;94.90;;;;;;4796547;29;20050;-85
2021/04/19 07:30:41;;;;;;;28.90;19.65;;;6.60;94.60;;;;;;4801559;29;20062;-85
2021/04/19 07:33:29;;;;;;;23.27;18.20;;;7.30;92.20;;;;;;4789430;29;20074;-85
2021/04/19 07:35:56;;;;;;;31.30;20.10;;;7.40;91.40;;;;;;4795256;29;20065;-86
2021/04/19 07:38:36;;;;;;;25.33;18.08;;;7.50;92.80;;;;;;4799659;29;20058;-82
2021/04/19 07:41:04;;;;;;;26.70;17.67;;;7.80;91.90;;;;;;4764401;29;20066;-87
2021/04/19 07:43:40;;;;;;;30.27;19.40;;;8.10;90.30;;;;;;4799467;29;20147;-86
2021/04/19 07:46:10;;;;;;;36.63;22.50;;;8.20;91.10;;;;;;4769743;29;20059;-83
2021/04/19 07:48:49;;;;;;;26.45;19.60;;;8.00;90.60;;;;;;4799791;29;20093;-86
2021/04/19 07:51:24;;;;;;;28.60;18.05;;;7.70;92.00;;;;;;4801786;29;20516;-84
2021/04/19 07:54:11;;;;;;;29.75;19.48;;;7.70;91.60;;;;;;4805596;29;20054;-82
2021/04/19 07:56:44;;;;;;;26.35;16.25;;;7.80;92.40;;;;;;4804544;29;20829;-81
2021/04/19 07:59:32;;;;;;;30.50;18.20;;;7.70;91.20;;;;;;4789158;29;20047;-81
2021/04/19 08:02:05;;;;;;;28.70;17.75;;;8.30;90.60;;;;;;4776504;29;20055;-82
2021/04/19 08:04:33;;;;;;;28.40;19.85;;;8.30;90.50;;;;;;4774074;29;20039;-80
2021/04/19 08:07:01;;;;;;;35.20;21.33;;;8.10;91.00;;;;;;4774263;29;20068;-82
2021/04/19 08:09:32;;;;;;;27.40;19.15;;;8.10;91.60;;;;;;4789191;29;20077;-81
2021/04/19 08:12:08;;;;;;;30.75;19.23;;;8.60;89.10;;;;;;4774137;29;20042;-88
2021/04/19 08:14:56;;;;;;;26.65;18.17;;;8.80;89.30;;;;;;4768118;29;20529;-83
2021/04/19 08:17:29;;;;;;;25.08;17.90;;;8.20;90.70;;;;;;4757600;30;20051;-88
2021/04/19 08:20:12;;;;;;;27.83;22.67;;;8.20;91.40;;;;;;4770414;30;20051;-86
2021/04/19 08:22:43;;;;;;;26.65;19.63;;;8.30;90.60;;;;;;4784856;30;20055;-85
2021/04/19 08:25:21;;;;;;;25.95;18.70;;;8.40;91.30;;;;;;4771066;30;20390;-84
2021/04/19 08:28:14;;;;;;;25.05;17.67;;;8.90;90.10;;;;;;4770340;29;20066;-84
2021/04/19 08:30:44;;;;;;;22.33;16.85;;;8.80;90.90;;;;;;4771133;29;20054;-86
2021/04/19 08:33:12;;;;;;;26.25;16.45;;;8.90;87.90;;;;;;4771448;30;20471;-86
2021/04/19 08:35:44;;;;;;;25.95;16.42;;;8.70;89.80;;;;;;4798078;29;20425;-89
2021/04/19 08:38:12;;;;;;;25.90;16.52;;;8.50;90.60;;;;;;4788796;29;20059;-89
2021/04/19 08:40:41;;;;;;;25.60;17.25;;;8.20;90.80;;;;;;4803720;29;20046;-81
2021/04/19 08:43:14;;;;;;;26.38;17.85;;;8.00;91.10;;;;;;4795962;29;20082;-87
2021/04/19 08:45:42;;;;;;;23.98;16.33;;;7.70;92.20;;;;;;4773170;29;20066;-87
2021/04/19 08:48:14;;;;;;;26.52;17.45;;;7.70;92.20;;;;;;4805930;29;20054;-86
2021/04/19 08:50:48;;;;;;;29.38;20.48;;;7.70;91.90;;;;;;4806328;29;20058;-86
2021/04/19 08:53:17;;;;;;;24.92;17.65;;;7.90;92.20;;;;;;4765970;29;20058;-86
2021/04/19 08:55:45;;;;;;;31.88;21.35;;;8.10;91.70;;;;;;4773168;29;20053;-84
2021/04/19 08:58:15;;;;;;;29.25;19.00;;;8.00;91.10;;;;;;4787721;29;20090;-83
2021/04/19 09:00:47;;;;;;;28.20;19.83;;;8.00;91.00;;;;;;4804969;29;20051;-89
2021/04/19 09:03:17;;;;;;;31.00;19.20;;;8.30;91.50;;;;;;4787013;29;20046;-88
2021/04/19 09:05:46;;;;;;;24.13;18.27;;;8.70;91.30;;;;;;4774222;29;20067;-89
2021/04/19 09:08:18;;;;;;;27.20;19.35;;;8.90;90.60;;;;;;4804314;29;20047;-87
2021/04/19 09:11:05;;;;;;;27.83;15.93;;;9.10;89.20;;;;;;4773437;29;20632;-87
2021/04/19 09:13:42;;;;;;;22.83;16.83;;;9.20;89.70;;;;;;4788126;29;20664;-87
2021/04/19 09:16:22;;;;;;;28.52;18.13;;;9.20;87.80;;;;;;4787978;29;20054;-86
2021/04/19 09:18:52;;;;;;;30.17;17.25;;;9.50;85.60;;;;;;4804250;29;20051;-86
2021/04/19 09:21:39;;;;;;;31.85;18.60;;;9.60;86.10;;;;;;4787894;29;20062;-86
2021/04/19 09:24:17;;;;;;;27.10;17.15;;;9.90;87.80;;;;;;4803495;29;20051;-81
2021/04/19 09:26:48;;;;;;;29.85;16.95;;;9.50;85.00;;;;;;4772898;29;20065;-81
2021/04/19 09:29:24;;;;;;;24.88;21.45;;;9.50;83.80;;;;;;4786257;29;20085;-82
2021/04/19 09:31:58;;;;;;;24.67;19.23;;;9.10;86.70;;;;;;4783848;29;20043;-81
2021/04/19 09:34:49;;;;;;;25.63;17.00;;;8.60;86.30;;;;;;4800627;29;20061;-88
2021/04/19 09:37:21;;;;;;;27.87;16.80;;;8.40;88.30;;;;;;4786308;29;20697;-89
2021/04/19 09:39:53;;;;;;;26.88;17.65;;;8.60;88.30;;;;;;4783625;29;20284;-88
2021/04/19 09:43:02;;;;;;;25.13;16.50;;;8.80;88.20;;;;;;4770845;29;20059;-88
2021/04/19 09:45:44;;;;;;;26.20;17.23;;;8.80;88.20;;;;;;4783627;30;20051;-87
2021/04/19 09:48:34;;;;;;;27.25;19.58;;;8.70;90.20;;;;;;4770717;30;20109;-88
2021/04/19 09:51:07;;;;;;;28.80;17.50;;;8.50;89.80;;;;;;4772225;29;20047;-86
2021/04/19 09:53:35;;;;;;;23.30;17.23;;;8.40;90.20;;;;;;4794944;29;20568;-84
2021/04/19 09:56:09;;;;;;;30.30;19.08;;;8.50;90.50;;;;;;4783562;29;20046;-83
2021/04/19 09:58:40;;;;;;;;;;;8.40;90.10;;;;;;4773264;29;20061;-86
2021/04/19 10:01:08;;;;;;;23.25;14.98;;;8.50;91.10;;;;;;4787104;29;19929;-83
2021/04/19 10:03:37;;;;;;;27.50;17.95;;;9.00;90.40;;;;;;4785875;29;20055;-83
2021/04/19 10:06:08;;;;;;;26.98;16.55;;;9.00;87.70;;;;;;4786826;29;20394;-84
2021/04/19 10:08:41;;;;;;;26.05;17.83;;;9.10;85.60;;;;;;4786596;29;20058;-84
2021/04/19 10:11:12;;;;;;;28.40;22.23;;;9.20;86.30;;;;;;4786947;29;20043;-82
2021/04/19 10:13:40;;;;;;;29.33;18.00;;;9.10;90.40;;;;;;4802504;29;20112;-85
2021/04/19 10:16:12;;;;;;;30.60;18.95;;;8.70;90.80;;;;;;4786416;29;20058;-83
2021/04/19 10:18:41;;;;;;;34.80;20.55;;;8.50;93.50;;;;;;4786727;29;20058;-82
2021/04/19 10:21:21;;;;;;;25.42;16.33;;;7.90;94.70;;;;;;4784956;30;20758;-81
2021/04/19 10:23:49;;;;;;;29.13;18.13;;;7.40;93.80;;;;;;4784890;29;20051;-81
2021/04/19 10:26:16;;;;;;;23.90;16.77;;;7.40;95.00;;;;;;4785400;30;20070;-82
2021/04/19 10:28:46;;;;;;;25.52;18.33;;;7.50;92.30;;;;;;4784892;30;20047;-82
2021/04/19 10:31:13;;;;;;;26.25;18.20;;;7.90;93.60;;;;;;4784754;29;20051;-81
2021/04/19 10:33:43;;;;;;;33.33;18.25;;;8.30;94.40;;;;;;4768856;30;20090;-82
2021/04/19 10:36:15;;;;;;;33.00;19.23;;;8.60;93.70;;;;;;4781801;29;20043;-83
2021/04/19 10:38:45;;;;;;;28.50;21.73;;;8.90;93.80;;;;;;4778305;29;20059;-82
2021/04/19 10:41:13;;;;;;;27.50;18.40;;;8.90;92.50;;;;;;4786064;29;20069;-86
2021/04/19 10:43:42;;;;;;;23.98;19.33;;;8.90;93.00;;;;;;4787199;29;20062;-84
2021/04/19 10:46:21;;;;;;;27.75;17.40;;;9.20;92.60;;;;;;4770887;29;20054;-85
2021/04/19 10:48:50;;;;;;;34.53;19.70;;;9.10;92.90;;;;;;4784040;29;20051;-84
2021/04/19 10:51:33;;;;;;;29.17;18.00;;;9.00;93.00;;;;;;4783661;29;20047;-81
2021/04/19 10:54:10;;;;;;;31.85;18.42;;;8.90;93.80;;;;;;4784783;30;20059;-84
2021/04/19 10:56:42;;;;;;;28.25;17.25;;;8.90;93.90;;;;;;4768277;29;20055;-83
2021/04/19 10:59:11;;;;;;;28.02;16.23;;;8.80;93.80;;;;;;4769104;30;20058;-86
2021/04/19 11:01:43;;;;;;;25.92;17.02;;;8.90;91.40;;;;;;4784276;29;20387;-84
2021/04/19 11:04:11;;;;;;;25.42;17.90;;;9.00;92.50;;;;;;4775282;29;20070;-83
2021/04/19 11:06:39;;;;;;;25.75;17.60;;;9.20;92.40;;;;;;4789945;29;20062;-82
2021/04/19 11:09:17;;;;;;;28.65;17.27;;;9.40;93.00;;;;;;4801039;29;20058;-86
2021/04/19 11:11:47;;;;;;;29.23;19.27;;;9.70;91.80;;;;;;4784963;29;20054;-79
2021/04/19 11:14:24;;;;;;;25.05;15.93;;;9.90;89.80;;;;;;4801696;29;20062;-79
2021/04/19 11:17:01;;;;;;;23.67;15.63;;;10.00;88.40;;;;;;4802023;29;20061;-83
2021/04/19 11:19:34;;;;;;;23.13;18.05;;;9.90;90.70;;;;;;4800666;29;20058;-81
2021/04/19 11:22:20;;;;;;;32.33;18.15;;;10.00;89.10;;;;;;4802159;29;20054;-81
2021/04/19 11:25:11;;;;;;;24.15;16.50;;;9.50;89.00;;;;;;4780718;29;20093;-84
2021/04/19 11:27:38;;;;;;;22.55;15.07;;;9.40;88.30;;;;;;4786086;29;20055;-82
2021/04/19 11:30:20;;;;;;;18.73;14.35;;;9.50;88.40;;;;;;4805473;29;20053;-81
2021/04/19 11:33:13;;;;;;;29.15;15.05;;;9.40;91.10;;;;;;4800665;29;20062;-82
2021/04/19 11:35:42;;;;;;;19.30;13.80;;;9.50;90.50;;;;;;4789603;29;20050;-79
2021/04/19 11:38:14;;;;;;;22.80;13.88;;;9.60;89.60;;;;;;4806267;29;20058;-82
2021/04/19 11:40:45;;;;;;;26.00;13.82;;;9.80;89.90;;;;;;4805758;29;20058;-83
2021/04/19 11:43:16;;;;;;;28.00;14.73;;;10.20;87.00;;;;;;4805634;29;20051;-83
2021/04/19 11:45:44;;;;;;;;;;;10.50;87.50;;;;;;4808370;29;20074;-83
2021/04/19 11:48:15;;;;;;;;;;;10.60;84.80;;;;;;4807450;29;19928;-83
2021/04/19 11:50:43;;;;;;;17.80;12.52;;;10.50;82.20;;;;;;4823974;29;19936;-81
2021/04/19 11:53:19;;;;;;;20.20;13.68;;;10.30;84.10;;;;;;4791620;29;20070;-83
2021/04/19 11:55:47;;;;;;;16.77;12.65;;;10.00;88.70;;;;;;4787908;30;20043;-83
2021/04/19 11:58:33;;;;;;;17.77;13.13;;;9.60;87.40;;;;;;4788229;29;20059;-83
2021/04/19 12:01:03;;;;;;;22.38;13.60;;;9.70;91.10;;;;;;4788166;29;20054;-84
2021/04/19 12:03:36;;;;;;;19.65;14.73;;;9.60;89.50;;;;;;4798285;29;20070;-84
2021/04/19 12:06:06;;;;;;;16.23;12.27;;;9.50;89.50;;;;;;4806507;29;20063;-83
2021/04/19 12:08:34;;;;;;;16.23;13.02;;;9.50;90.30;;;;;;4805456;29;20051;-82
2021/04/19 12:11:03;;;;;;;19.58;13.27;;;9.60;89.90;;;;;;4805084;29;20533;-83
2021/04/19 12:13:31;;;;;;;19.20;12.18;;;9.50;89.00;;;;;;4804833;29;20505;-82
2021/04/19 12:15:58;;;;;;;18.98;13.60;;;9.50;90.10;;;;;;4805325;29;20054;-82
2021/04/19 12:18:26;;;;;;;16.55;10.68;;;9.40;90.20;;;;;;4806477;29;20055;-83
2021/04/19 12:21:00;;;;;;;17.48;11.75;;;9.30;88.60;;;;;;4805489;29;20858;-83
2021/04/19 12:23:29;;;;;;;15.70;10.98;;;9.50;88.00;;;;;;4805127;29;20047;-82
2021/04/19 12:26:01;;;;;;;17.67;11.40;;;9.60;84.00;;;;;;4806494;29;20906;-83
2021/04/19 12:28:53;;;;;;;13.85;9.90;;;9.80;86.60;;;;;;4805005;29;20050;-82
2021/04/19 12:31:20;;;;;;;18.90;11.85;;;10.10;86.00;;;;;;4788861;29;20055;-83
2021/04/19 12:33:48;;;;;;;14.68;10.82;;;10.00;83.90;;;;;;4789457;29;20520;-82
2021/04/19 12:36:17;;;;;;;17.98;11.40;;;10.00;82.80;;;;;;4789447;29;20406;-82
2021/04/19 12:38:45;;;;;;;20.02;11.80;;;10.40;80.50;;;;;;4804539;29;20054;-82
2021/04/19 12:41:14;;;;;;;13.88;8.57;;;10.70;79.50;;;;;;4805690;29;20055;-83
2021/04/19 12:43:42;;;;;;;12.68;7.90;;;10.70;72.60;;;;;;4783051;29;20135;-87
2021/04/19 12:46:09;;;;;;;11.88;7.30;;;10.60;73.40;;;;;;4806811;29;20066;-82
2021/04/19 12:48:39;;;;;;;14.32;11.15;;;10.60;73.80;;;;;;4805201;29;20067;-82
2021/04/19 12:51:10;;;;;;;28.73;13.38;;;10.60;82.90;;;;;;4774430;29;20063;-83
2021/04/19 12:53:38;;;;;;;23.83;16.13;;;10.30;86.00;;;;;;4804590;29;20059;-82
2021/04/19 12:56:05;;;;;;;20.38;14.70;;;10.30;90.40;;;;;;4805595;29;20417;-82
2021/04/19 12:58:33;;;;;;;23.27;15.70;;;10.60;85.50;;;;;;4788393;29;20151;-81
2021/04/19 13:01:00;;;;;;;27.25;15.82;;;10.40;90.80;;;;;;4787360;29;20055;-81
2021/04/19 13:03:28;;;;;;;19.50;13.50;;;10.70;91.10;;;;;;4786804;29;20144;-81
2021/04/19 13:05:55;;;;;;;20.80;14.18;;;11.00;87.10;;;;;;4786804;30;20059;-81
2021/04/19 13:08:22;;;;;;;18.15;13.63;;;11.10;88.10;;;;;;4755899;29;20051;-81